Time;durP1;ratioP1;P1;durP2;ratioP2;P2;SDS_P1;SDS_P2;PMS_P1;PMS_P2;Temp;Humidity;BMP_temperature;BMP_pressure;BME280_temperature;BME280_humidity;BME280_pressure;Samples;Min_cycle;Max_cycle;Signal;HPM_P1;HPM_P2
2021/07/28 00:00:45;;;;;;;9.20;3.85;;;22.20;99.90;;;22.84;61.95;100651.59;5056591;28;20192;-77
2021/07/28 00:03:12;;;;;;;9.55;4.13;;;22.20;99.90;;;22.79;62.21;100648.50;5056036;28;20195;-77
2021/07/28 00:05:38;;;;;;;10.20;4.18;;;22.20;99.90;;;22.78;62.12;100647.63;5055223;28;20756;-77
2021/07/28 00:08:06;;;;;;;9.27;4.22;;;22.10;99.90;;;22.77;62.11;100650.44;5074179;28;20187;-78
2021/07/28 00:10:33;;;;;;;9.88;4.28;;;22.10;99.90;;;22.73;62.31;100643.69;5056369;28;20652;-77
2021/07/28 00:13:01;;;;;;;10.00;4.55;;;22.10;99.90;;;22.70;62.87;100644.81;5074258;28;20259;-77
2021/07/28 00:15:28;;;;;;;9.70;4.20;;;22.10;99.90;;;22.68;63.17;100645.91;5073902;28;20645;-77
2021/07/28 00:17:59;;;;;;;11.35;4.60;;;22.10;99.90;;;22.65;62.82;100638.19;5074422;28;20184;-77
2021/07/28 00:20:30;;;;;;;9.98;4.20;;;22.00;99.90;;;22.61;62.92;100644.75;5058313;28;20624;-77
2021/07/28 00:23:14;;;;;;;9.23;3.80;;;22.00;99.90;;;22.57;63.48;100643.38;5060079;28;20562;-78
2021/07/28 00:25:42;;;;;;;9.50;4.25;;;21.90;99.90;;;22.54;63.63;100638.31;5079787;28;20180;-77
2021/07/28 00:28:11;;;;;;;10.88;4.18;;;21.90;99.90;;;22.51;63.35;100633.19;5061995;28;20188;-76
2021/07/28 00:30:38;;;;;;;10.10;4.05;;;21.90;99.90;;;22.46;63.61;100633.59;5056354;28;20219;-77
2021/07/28 00:33:05;;;;;;;10.43;4.40;;;21.90;99.90;;;22.46;63.66;100641.59;5082311;28;20199;-76
2021/07/28 00:35:32;;;;;;;11.23;4.30;;;21.90;99.90;;;22.46;63.69;100638.06;5057648;28;20199;-77
2021/07/28 00:38:04;;;;;;;12.43;4.30;;;21.80;99.90;;;22.45;64.10;100633.72;5055279;28;20219;-77
2021/07/28 00:40:31;;;;;;;9.73;4.43;;;21.80;99.90;;;22.42;64.28;100628.69;5055868;28;20565;-77
2021/07/28 00:43:14;;;;;;;8.75;4.00;;;21.80;99.90;;;22.38;64.24;100636.94;5055503;28;20250;-77
2021/07/28 00:45:42;;;;;;;11.52;4.75;;;21.80;99.90;;;22.35;64.35;100631.88;5056908;28;20196;-77
2021/07/28 00:48:10;;;;;;;9.00;4.18;;;21.70;99.90;;;22.32;64.54;100629.47;5055248;28;20188;-76
2021/07/28 00:50:39;;;;;;;10.10;4.20;;;21.70;99.90;;;22.32;64.37;100640.13;5073410;28;20192;-76
2021/07/28 00:53:08;;;;;;;11.10;4.47;;;21.70;99.90;;;22.29;64.78;100624.41;5055504;28;20653;-77
2021/07/28 00:55:35;;;;;;;10.60;4.13;;;21.60;99.90;;;22.27;64.93;100634.38;5055844;28;20200;-77
2021/07/28 00:58:02;;;;;;;9.45;4.03;;;21.60;99.90;;;22.26;64.83;100627.34;5055714;28;20189;-77
2021/07/28 01:00:31;;;;;;;9.88;4.13;;;21.60;99.90;;;22.23;65.04;100635.63;5055680;28;20196;-76
2021/07/28 01:02:57;;;;;;;10.07;4.30;;;21.60;99.90;;;22.20;65.20;100633.19;5073572;28;20262;-77
2021/07/28 01:05:25;;;;;;;10.38;3.78;;;21.50;99.90;;;22.17;64.92;100635.31;5056923;28;20227;-77
2021/07/28 01:07:52;;;;;;;10.38;4.50;;;21.50;99.90;;;22.16;65.49;100634.47;5076389;28;20554;-77
2021/07/28 01:10:19;;;;;;;9.68;4.00;;;21.50;99.90;;;22.16;65.26;100634.47;5072065;28;20192;-77
2021/07/28 01:12:51;;;;;;;12.50;4.28;;;21.50;99.90;;;22.15;65.59;100642.59;5075798;28;20255;-78
2021/07/28 01:15:32;;;;;;;9.40;4.18;;;21.50;99.90;;;22.12;65.93;100641.03;5078594;28;20190;-77
2021/07/28 01:18:02;;;;;;;9.65;3.90;;;21.50;99.90;;;22.08;65.88;100642.28;5073733;28;20195;-76
2021/07/28 01:20:35;;;;;;;8.32;3.60;;;21.40;99.90;;;22.06;65.81;100632.72;5086465;28;20180;-78
2021/07/28 01:23:06;;;;;;;9.45;3.65;;;21.40;99.90;;;22.00;66.03;100628.75;5066895;28;20199;-77
2021/07/28 01:25:35;;;;;;;10.18;4.05;;;21.40;99.90;;;21.98;65.83;100632.53;5065298;28;20223;-76
2021/07/28 01:28:03;;;;;;;9.98;4.45;;;21.30;99.90;;;21.96;65.55;100622.00;5059935;28;20393;-77
2021/07/28 01:30:31;;;;;;;9.27;4.47;;;21.30;99.90;;;21.97;65.61;100628.19;5058012;28;20192;-77
2021/07/28 01:33:00;;;;;;;9.13;3.83;;;21.30;99.90;;;21.95;65.73;100630.97;5055026;28;20202;-78
2021/07/28 01:35:31;;;;;;;9.13;3.97;;;21.30;99.90;;;21.94;66.03;100623.97;5054534;28;20203;-77
2021/07/28 01:37:58;;;;;;;9.48;3.97;;;21.30;99.90;;;21.92;65.70;100631.25;5072320;28;20188;-77
2021/07/28 01:40:25;;;;;;;10.40;4.53;;;21.30;99.90;;;21.92;65.92;100627.75;5055008;28;20196;-76
2021/07/28 01:42:53;;;;;;;11.25;4.47;;;21.30;99.90;;;21.89;66.11;100626.19;5075303;28;20185;-77
2021/07/28 01:45:19;;;;;;;10.35;3.95;;;21.30;99.90;;;21.85;66.36;100627.41;5074387;28;20207;-77
2021/07/28 01:47:46;;;;;;;11.68;4.38;;;21.20;99.90;;;21.84;66.35;100628.38;5083911;28;20192;-77
2021/07/28 01:50:14;;;;;;;10.82;3.95;;;21.20;99.90;;;21.84;66.70;100636.38;5081637;28;20211;-77
2021/07/28 01:52:42;;;;;;;11.73;4.55;;;21.20;99.90;;;21.82;66.43;100637.50;5074201;28;20183;-76
2021/07/28 01:55:10;;;;;;;10.93;4.43;;;21.20;99.90;;;21.80;66.57;100636.78;5058409;28;20196;-77
2021/07/28 01:57:37;;;;;;;9.50;3.92;;;21.20;99.90;;;21.79;66.54;100633.28;5066076;28;20633;-76
2021/07/28 02:00:07;;;;;;;10.63;4.20;;;21.10;99.90;;;21.78;66.69;100628.94;5059696;28;20219;-76
2021/07/28 02:02:35;;;;;;;9.48;4.22;;;21.10;99.90;;;21.75;67.12;100623.81;5089644;28;20222;-76
2021/07/28 02:05:03;;;;;;;10.15;4.35;;;21.10;99.90;;;21.74;66.98;100621.28;5072084;28;20219;-76
2021/07/28 02:07:31;;;;;;;9.25;4.53;;;21.10;99.90;;;21.72;67.32;100621.41;5078662;28;20191;-77
2021/07/28 02:09:58;;;;;;;9.45;4.40;;;21.10;99.90;;;21.71;67.08;100621.53;5065175;28;20220;-77
2021/07/28 02:12:24;;;;;;;11.25;4.10;;;21.10;99.90;;;21.67;66.96;100614.81;5074192;28;20188;-77
2021/07/28 02:14:51;;;;;;;10.30;4.18;;;21.00;99.90;;;21.64;67.02;100615.88;5060680;28;20229;-77
2021/07/28 02:17:19;;;;;;;12.13;4.50;;;21.00;99.90;;;21.61;67.36;100620.63;5053631;28;20192;-77
2021/07/28 02:19:46;;;;;;;9.13;4.00;;;21.00;99.90;;;21.58;67.68;100626.22;5053707;28;20216;-76
2021/07/28 02:22:13;;;;;;;8.93;4.03;;;21.00;99.90;;;21.56;67.60;100615.69;5053800;28;20236;-78
2021/07/28 02:24:41;;;;;;;9.95;4.22;;;20.90;99.90;;;21.59;67.59;100623.44;5071416;28;20204;-77
2021/07/28 02:27:09;;;;;;;9.82;4.40;;;21.00;99.90;;;21.58;67.59;100613.75;5071408;28;20180;-77
2021/07/28 02:29:37;;;;;;;9.95;4.15;;;21.00;99.90;;;21.57;67.74;100612.06;5055375;28;20208;-77
2021/07/28 02:32:05;;;;;;;12.35;4.53;;;21.00;99.90;;;21.57;68.14;100609.38;5057520;28;20264;-77
2021/07/28 02:34:34;;;;;;;11.50;4.13;;;21.00;99.90;;;21.56;68.00;100609.53;5075558;28;20592;-77
2021/07/28 02:37:01;;;;;;;10.52;4.47;;;21.00;99.90;;;21.56;68.20;100602.38;5075229;28;20188;-75
2021/07/28 02:39:28;;;;;;;13.40;4.93;;;21.00;99.90;;;21.54;67.98;100604.31;5075525;28;20211;-76
2021/07/28 02:41:54;;;;;;;8.82;3.92;;;21.00;99.90;;;21.54;68.21;100614.13;5075501;28;20593;-76
2021/07/28 02:44:21;;;;;;;10.32;4.13;;;20.90;99.90;;;21.52;67.90;100616.09;5075120;28;20204;-78
2021/07/28 02:46:48;;;;;;;10.18;4.72;;;20.90;99.90;;;21.51;68.09;100614.38;5075213;28;20728;-77
2021/07/28 02:49:15;;;;;;;10.30;4.30;;;20.90;99.90;;;21.49;68.57;100614.53;5057466;28;20215;-75
2021/07/28 02:51:43;;;;;;;10.30;4.13;;;20.90;99.90;;;21.50;68.11;100624.19;5075291;28;20200;-77
2021/07/28 02:54:10;;;;;;;10.98;4.18;;;20.90;99.90;;;21.50;68.12;100618.03;5057309;28;20700;-76
2021/07/28 02:56:39;;;;;;;10.50;4.05;;;20.90;99.90;;;21.48;68.20;100615.50;5057082;28;20219;-76
2021/07/28 02:59:06;;;;;;;9.95;4.05;;;20.90;99.90;;;21.47;68.30;100613.81;5057024;28;20776;-77
2021/07/28 03:01:33;;;;;;;9.15;3.67;;;20.90;99.90;;;21.46;68.22;100609.47;5057161;28;20199;-77
2021/07/28 03:03:59;;;;;;;10.27;4.65;;;20.90;99.90;;;21.46;68.32;100612.13;5074918;28;20184;-76
2021/07/28 03:06:26;;;;;;;9.70;4.45;;;20.90;99.90;;;21.47;68.20;100603.16;5074428;28;20192;-76
2021/07/28 03:08:54;;;;;;;9.30;4.20;;;20.90;99.90;;;21.48;68.38;100602.19;5056675;28;20783;-76
2021/07/28 03:11:21;;;;;;;10.63;4.20;;;20.90;99.90;;;21.46;68.56;100612.13;5056929;28;20645;-77
2021/07/28 03:13:48;;;;;;;11.30;4.00;;;20.90;99.90;;;21.45;68.33;100610.41;5056691;28;20188;-76
2021/07/28 03:16:14;;;;;;;13.07;4.13;;;20.90;99.90;;;21.47;68.38;100613.81;5074529;28;20214;-76
2021/07/28 03:18:41;;;;;;;10.57;4.28;;;20.90;99.90;;;21.47;68.11;100608.47;5056523;28;20208;-76
2021/07/28 03:21:12;;;;;;;9.55;4.25;;;20.90;99.90;;;21.47;68.22;100605.81;5057891;28;20195;-74
2021/07/28 03:23:39;;;;;;;9.57;4.20;;;20.90;99.90;;;21.48;68.68;100601.34;5056623;28;20600;-77
2021/07/28 03:26:07;;;;;;;10.00;4.43;;;20.90;99.90;;;21.49;68.76;100601.19;5074618;28;20235;-77
2021/07/28 03:28:34;;;;;;;9.30;3.88;;;20.90;99.90;;;21.48;68.63;100599.53;5056665;28;20219;-76
2021/07/28 03:31:01;;;;;;;9.77;4.32;;;20.90;99.90;;;21.49;68.55;100605.69;5075444;28;20187;-76
2021/07/28 03:33:28;;;;;;;10.38;4.55;;;20.90;99.90;;;21.49;68.57;100617.19;5056669;28;20188;-76
2021/07/28 03:35:54;;;;;;;10.98;4.28;;;20.90;99.90;;;21.48;68.58;100615.50;5056467;28;20184;-77
2021/07/28 03:38:21;;;;;;;10.18;4.10;;;20.90;99.90;;;21.47;69.09;100613.81;5074062;28;20219;-76
2021/07/28 03:40:48;;;;;;;10.93;4.53;;;21.00;99.90;;;21.46;69.25;100620.13;5056282;28;20637;-78
2021/07/28 03:43:16;;;;;;;12.73;4.55;;;20.90;99.90;;;21.45;69.43;100621.06;5056347;28;20187;-77
2021/07/28 03:45:43;;;;;;;10.38;4.38;;;20.90;99.90;;;21.43;69.41;100627.50;5056194;28;20223;-77
2021/07/28 03:48:11;;;;;;;9.27;3.95;;;20.90;99.90;;;21.37;69.17;100634.19;5056149;28;20188;-76
2021/07/28 03:50:38;;;;;;;13.00;4.43;;;20.80;99.90;;;21.35;69.35;100620.16;5056417;28;20246;-77
2021/07/28 03:53:05;;;;;;;10.95;4.53;;;20.80;99.90;;;21.36;69.69;100623.66;5073833;28;20188;-76
2021/07/28 03:55:32;;;;;;;10.25;4.50;;;20.90;99.90;;;21.34;69.52;100626.47;5073924;28;20188;-77
2021/07/28 03:57:59;;;;;;;9.23;4.25;;;20.80;99.90;;;21.34;69.29;100617.63;5073678;28;20238;-77
2021/07/28 04:00:27;;;;;;;10.57;4.13;;;20.80;99.90;;;21.36;69.22;100624.53;5055735;28;20188;-77
2021/07/28 04:02:54;;;;;;;9.93;4.20;;;20.80;99.90;;;21.36;69.48;100624.53;5055946;28;20207;-77
2021/07/28 04:05:21;;;;;;;10.43;4.38;;;20.80;99.90;;;21.36;69.10;100626.34;5055418;28;20238;-76
2021/07/28 04:07:56;;;;;;;9.10;4.07;;;20.80;99.90;;;21.36;69.11;100629.84;5055652;28;20635;-77
2021/07/28 04:10:24;;;;;;;10.40;4.20;;;20.80;99.90;;;21.36;69.46;100624.53;5073757;28;20219;-76
2021/07/28 04:12:51;;;;;;;10.15;3.85;;;20.80;99.90;;;21.35;69.39;100630.81;5055817;28;20191;-76
2021/07/28 04:15:18;;;;;;;10.38;4.10;;;20.80;99.90;;;21.34;69.46;100642.44;5073526;28;20191;-77
2021/07/28 04:17:47;;;;;;;9.48;4.00;;;20.90;99.90;;;21.35;69.58;100645.97;5055719;28;20188;-76
2021/07/28 04:20:15;;;;;;;10.07;4.22;;;20.90;99.90;;;21.35;69.48;100638.78;5073661;28;20227;-76
2021/07/28 04:22:42;;;;;;;12.10;4.15;;;20.80;99.90;;;21.32;69.94;100631.06;5056235;28;20188;-76
2021/07/28 04:25:10;;;;;;;9.60;4.35;;;20.70;99.90;;;21.31;69.92;100621.41;5060234;28;20208;-74
2021/07/28 04:27:38;;;;;;;11.48;4.50;;;20.70;99.90;;;21.29;70.63;100625.16;5070206;28;20196;-77
2021/07/28 04:30:06;;;;;;;10.48;4.55;;;20.70;99.90;;;21.26;70.89;100626.25;5079812;28;20200;-77
2021/07/28 04:32:34;;;;;;;13.23;4.15;;;20.70;99.90;;;21.26;70.73;100633.41;5075327;28;20195;-75
2021/07/28 04:35:02;;;;;;;10.43;4.50;;;20.60;99.90;;;21.28;71.13;100624.31;5055483;28;20657;-77
2021/07/28 04:37:29;;;;;;;9.77;4.40;;;20.70;99.90;;;21.27;70.97;100627.94;5055075;28;20196;-76
2021/07/28 04:40:00;;;;;;;12.70;4.90;;;20.70;99.90;;;21.26;71.05;100628.06;5073094;28;20200;-76
2021/07/28 04:42:28;;;;;;;9.70;3.95;;;20.60;99.90;;;21.22;71.09;100629.31;5055087;28;20188;-76
2021/07/28 04:44:55;;;;;;;9.80;4.05;;;20.70;99.90;;;21.22;70.76;100645.28;5055466;28;20208;-76
2021/07/28 04:47:22;;;;;;;10.18;4.57;;;20.70;99.90;;;21.24;70.92;100648.66;5074140;28;20188;-77
2021/07/28 04:49:48;;;;;;;11.05;4.68;;;20.70;99.90;;;21.23;70.64;100645.16;5055316;28;20220;-77
2021/07/28 04:52:22;;;;;;;9.57;4.38;;;20.70;99.90;;;21.22;70.51;100646.13;5054689;28;20196;-77
2021/07/28 04:54:49;;;;;;;10.73;4.28;;;20.70;99.90;;;21.22;70.58;100643.47;5072582;28;20533;-77
2021/07/28 04:57:16;;;;;;;9.65;4.50;;;20.70;99.90;;;21.22;70.77;100630.13;5054787;28;20187;-76
2021/07/28 04:59:43;;;;;;;10.20;4.50;;;20.70;99.90;;;21.23;70.65;100631.84;5073548;28;20695;-76
2021/07/28 05:02:09;;;;;;;12.20;5.22;;;20.80;99.90;;;21.24;70.68;100630.88;5078857;28;20192;-76
2021/07/28 05:04:37;;;;;;;11.27;4.32;;;20.70;99.90;;;21.25;70.41;100629.06;5080480;28;20182;-78
2021/07/28 05:07:04;;;;;;;11.65;4.60;;;20.70;99.90;;;21.25;70.38;100648.53;5096537;28;20194;-79
2021/07/28 05:09:32;;;;;;;9.73;4.22;;;20.80;99.90;;;21.26;70.72;100644.91;5080640;28;20210;-78
2021/07/28 05:11:59;;;;;;;10.23;4.47;;;20.70;99.90;;;21.26;70.84;100646.72;5079956;28;20168;-77
2021/07/28 05:14:26;;;;;;;10.85;4.60;;;20.80;99.90;;;21.25;71.23;100648.53;5080482;28;20186;-77
2021/07/28 05:16:53;;;;;;;10.70;4.43;;;20.80;99.90;;;21.28;71.01;100650.97;5097540;28;20235;-77
2021/07/28 05:19:20;;;;;;;10.13;4.53;;;20.80;99.90;;;21.26;70.80;100642.25;5097249;28;20282;-77
2021/07/28 05:21:46;;;;;;;10.98;4.75;;;20.80;99.90;;;21.26;70.50;100647.56;5080704;28;20244;-77
2021/07/28 05:24:13;;;;;;;10.45;4.38;;;20.80;99.90;;;21.27;70.68;100654.56;5080682;28;20177;-77
2021/07/28 05:26:41;;;;;;;9.98;4.20;;;20.80;99.90;;;21.27;71.05;100659.91;5080172;28;20203;-77
2021/07/28 05:29:09;;;;;;;11.23;4.32;;;20.80;99.90;;;21.24;70.74;100662.81;5094507;28;20196;-76
2021/07/28 05:31:36;;;;;;;10.98;4.95;;;20.80;99.90;;;21.21;71.50;100654.25;5063605;28;20206;-77
2021/07/28 05:34:03;;;;;;;11.13;4.25;;;20.70;99.90;;;21.18;71.75;100642.03;5057610;28;20188;-76
2021/07/28 05:36:30;;;;;;;11.05;4.38;;;20.70;99.90;;;21.18;72.23;100645.53;5074371;28;20191;-77
2021/07/28 05:38:56;;;;;;;9.38;4.32;;;20.70;99.90;;;21.20;72.11;100642.72;5055785;28;20222;-76
2021/07/28 05:41:23;;;;;;;11.50;5.15;;;20.70;99.90;;;21.20;72.42;100649.91;5055922;28;20540;-77
2021/07/28 05:43:51;;;;;;;11.50;4.70;;;20.70;99.90;;;21.20;72.44;100661.38;5073789;28;20297;-78
2021/07/28 05:46:18;;;;;;;9.65;4.50;;;20.70;99.90;;;21.20;72.56;100655.22;5073314;28;20200;-77
2021/07/28 05:48:45;;;;;;;10.10;4.68;;;20.70;99.90;;;21.19;72.41;100657.03;5073418;28;20574;-78
2021/07/28 05:51:12;;;;;;;11.77;4.55;;;20.70;99.90;;;21.18;71.91;100653.50;5073167;28;20187;-78
2021/07/28 05:53:38;;;;;;;11.90;4.53;;;20.70;99.90;;;21.17;71.87;100646.50;5054757;28;20191;-78
2021/07/28 05:56:06;;;;;;;8.80;4.03;;;20.70;99.90;;;21.17;71.68;100643.00;5054958;28;20196;-77
2021/07/28 05:58:33;;;;;;;10.93;4.57;;;20.70;99.90;;;21.21;71.34;100639.13;5055411;28;20212;-78
2021/07/28 06:01:01;;;;;;;9.15;3.90;;;20.70;99.90;;;21.23;71.11;100626.53;5055611;28;20215;-78
2021/07/28 06:03:28;;;;;;;9.18;3.58;;;20.70;99.90;;;21.25;70.68;100621.91;5054967;28;20556;-77
2021/07/28 06:05:58;;;;;;;10.20;3.67;;;20.80;99.90;;;21.29;70.29;100626.00;5076561;28;20200;-78
2021/07/28 06:08:25;;;;;;;11.18;4.07;;;20.80;99.90;;;21.32;69.75;100630.25;5076476;28;20211;-78
2021/07/28 06:10:52;;;;;;;8.35;3.70;;;20.90;99.90;;;21.32;69.34;100620.41;5059202;28;20188;-76
2021/07/28 06:13:19;;;;;;;9.52;3.40;;;20.90;99.90;;;21.38;69.31;100633.25;5059270;28;20188;-77
2021/07/28 06:15:48;;;;;;;8.48;3.15;;;20.90;99.90;;;21.42;68.84;100633.84;5058740;28;20197;-78
2021/07/28 06:18:16;;;;;;;9.38;3.67;;;20.90;99.90;;;21.45;68.38;100631.72;5058577;28;20711;-77
2021/07/28 06:20:43;;;;;;;8.50;3.17;;;21.00;99.90;;;21.48;68.18;100635.97;5058586;28;20199;-77
2021/07/28 06:23:10;;;;;;;12.25;3.80;;;21.00;99.90;;;21.48;67.84;100644.81;5059012;28;20195;-77
2021/07/28 06:25:37;;;;;;;11.13;3.92;;;21.00;99.90;;;21.47;67.44;100648.44;5058535;28;20219;-77
2021/07/28 06:28:04;;;;;;;8.30;3.30;;;21.00;99.90;;;21.47;67.14;100642.28;5076394;28;20188;-77
2021/07/28 06:30:31;;;;;;;8.45;3.55;;;21.00;99.90;;;21.48;67.13;100638.63;5076544;28;20188;-77
2021/07/28 06:32:58;;;;;;;8.55;3.45;;;21.00;99.90;;;21.51;67.10;100636.56;5058470;28;20242;-77
2021/07/28 06:35:26;;;;;;;11.32;4.35;;;21.00;99.90;;;21.57;66.99;100640.53;5076162;28;20184;-77
2021/07/28 06:37:53;;;;;;;9.55;3.90;;;21.10;99.90;;;21.59;67.21;100647.41;5058105;28;20203;-77
2021/07/28 06:40:20;;;;;;;10.00;3.75;;;21.10;99.90;;;21.61;67.38;100648.13;5058360;28;20653;-77
2021/07/28 06:42:46;;;;;;;10.43;3.42;;;21.20;99.90;;;21.63;67.11;100651.50;5075754;28;20191;-76
2021/07/28 06:45:14;;;;;;;14.15;4.35;;;21.20;99.90;;;21.65;67.30;100656.72;5058886;28;20204;-77
2021/07/28 06:47:41;;;;;;;11.02;3.90;;;21.20;99.90;;;21.66;67.23;100661.06;5058760;28;20203;-76
2021/07/28 06:50:09;;;;;;;8.88;3.53;;;21.20;99.90;;;21.66;66.63;100664.56;5059422;28;20212;-77
2021/07/28 06:52:38;;;;;;;10.25;3.25;;;21.20;99.90;;;21.66;66.82;100656.59;5058761;28;20695;-78
2021/07/28 06:55:06;;;;;;;8.50;3.13;;;21.20;99.90;;;21.69;66.17;100666.13;5076634;28;20199;-77
2021/07/28 06:57:33;;;;;;;9.23;3.15;;;21.20;99.90;;;21.70;66.11;100667.81;5058701;28;20188;-75
2021/07/28 07:00:00;;;;;;;8.25;3.05;;;21.30;99.90;;;21.69;66.15;100671.44;5058493;28;20207;-77
2021/07/28 07:02:26;;;;;;;10.07;3.53;;;21.20;99.90;;;21.66;66.39;100677.03;5076655;28;20383;-75
2021/07/28 07:04:53;;;;;;;9.05;3.65;;;21.20;99.90;;;21.64;66.09;100671.84;5058655;28;20633;-75
2021/07/28 07:07:20;;;;;;;8.77;3.97;;;21.20;99.90;;;21.63;66.48;100682.63;5076466;28;20212;-76
2021/07/28 07:09:49;;;;;;;18.20;4.75;;;21.20;99.90;;;21.60;66.97;100688.22;5076270;28;20212;-78
2021/07/28 07:12:16;;;;;;;21.85;6.32;;;21.20;99.90;;;21.58;67.27;100691.03;5058958;28;20200;-76
2021/07/28 07:14:42;;;;;;;109.85;16.85;;;21.20;99.90;;;21.55;67.31;100693.91;5058647;28;20192;-77
2021/07/28 07:17:09;;;;;;;17.40;5.05;;;21.10;99.90;;;21.53;67.81;100697.69;5058093;28;20188;-76
2021/07/28 07:19:36;;;;;;;10.52;5.00;;;21.10;99.90;;;21.50;68.55;100698.78;5057922;28;20219;-77
2021/07/28 07:22:04;;;;;;;10.55;4.80;;;21.10;99.90;;;21.52;69.04;100690.69;5058940;28;20192;-77
2021/07/28 07:24:30;;;;;;;12.70;4.68;;;21.10;99.90;;;21.57;68.95;100688.50;5075903;28;20652;-75
2021/07/28 07:26:59;;;;;;;12.15;4.80;;;21.20;99.90;;;21.61;69.13;100688.09;5076003;28;20700;-77
2021/07/28 07:29:26;;;;;;;9.35;4.28;;;21.30;99.90;;;21.65;68.91;100686.03;5058939;28;20218;-76
2021/07/28 07:31:53;;;;;;;12.23;4.72;;;21.30;99.90;;;21.69;68.93;100693.63;5058101;28;20231;-77
2021/07/28 07:34:20;;;;;;;11.32;4.93;;;21.40;99.90;;;21.72;68.69;100693.34;5077512;28;20184;-76
2021/07/28 07:36:47;;;;;;;88.60;14.68;;;21.50;99.90;;;21.77;68.98;100688.53;5076877;28;20243;-76
2021/07/28 07:39:14;;;;;;;23.42;6.63;;;21.50;99.90;;;21.81;69.21;100681.97;5077484;28;20288;-78
2021/07/28 07:41:41;;;;;;;16.83;4.75;;;21.60;99.90;;;21.84;68.77;100679.03;5061205;28;20196;-76
2021/07/28 07:44:09;;;;;;;11.85;4.50;;;21.60;99.90;;;21.90;68.54;100672.34;5079660;28;20192;-77
2021/07/28 07:46:36;;;;;;;10.52;4.30;;;21.70;99.90;;;21.94;68.34;100668.44;5096982;28;20207;-78
2021/07/28 07:49:03;;;;;;;10.82;4.03;;;21.80;99.90;;;22.03;68.41;100670.31;5067865;28;20215;-77
2021/07/28 07:51:30;;;;;;;10.15;4.28;;;21.90;99.90;;;22.15;68.27;100680.75;5057677;28;20211;-77
2021/07/28 07:53:58;;;;;;;9.90;3.55;;;22.00;99.90;;;22.31;67.78;100680.28;5058363;28;20192;-77
2021/07/28 07:56:25;;;;;;;9.45;4.28;;;22.20;99.90;;;22.37;67.28;100690.44;5076402;28;20188;-77
2021/07/28 07:58:52;;;;;;;10.55;3.95;;;22.30;99.90;;;22.37;67.52;100685.94;5057998;28;20311;-77
2021/07/28 08:01:20;;;;;;;9.77;4.35;;;22.40;99.90;;;22.35;67.64;100687.88;5057428;28;20196;-77
2021/07/28 08:03:50;;;;;;;12.55;4.50;;;22.30;99.90;;;22.33;67.85;100695.19;5057990;28;20210;-75
2021/07/28 08:06:17;;;;;;;74.93;12.80;;;22.40;99.90;;;22.37;67.53;100693.94;5056665;28;20674;-77
2021/07/28 08:08:43;;;;;;;113.50;15.30;;;22.40;99.90;;;22.38;67.50;100690.31;5056718;28;20216;-76
2021/07/28 08:11:13;;;;;;;20.92;5.88;;;22.50;99.90;;;22.39;67.99;100683.13;5057182;28;20563;-78
2021/07/28 08:13:41;;;;;;;23.80;5.95;;;22.50;99.90;;;22.42;67.60;100678.38;5057314;28;20216;-77
2021/07/28 08:16:13;;;;;;;22.42;5.75;;;22.50;99.90;;;22.46;67.83;100680.75;5075002;28;20188;-77
2021/07/28 08:18:42;;;;;;;43.40;7.82;;;22.60;99.90;;;22.52;68.23;100682.91;5056887;28;20585;-75
2021/07/28 08:21:09;;;;;;;20.98;5.63;;;22.60;99.90;;;22.58;68.11;100682.41;5057590;28;20192;-78
2021/07/28 08:23:37;;;;;;;11.27;4.65;;;22.60;99.90;;;22.72;68.01;100674.03;5075817;28;20203;-77
2021/07/28 08:26:05;;;;;;;9.77;4.40;;;22.80;99.90;;;22.87;67.67;100678.00;5074934;28;20574;-76
2021/07/28 08:28:32;;;;;;;66.70;10.88;;;23.00;99.90;;;23.03;67.02;100672.97;5056294;28;20711;-77
2021/07/28 08:30:59;;;;;;;16.73;4.65;;;23.20;99.90;;;23.18;66.34;100672.44;5074705;28;20180;-77
2021/07/28 08:33:28;;;;;;;10.88;4.03;;;23.40;99.90;;;23.31;66.63;100672.22;5057173;28;20649;-76
2021/07/28 08:35:58;;;;;;;8.48;3.83;;;23.60;99.90;;;23.28;66.54;100673.34;5075568;28;20189;-79
2021/07/28 08:38:26;;;;;;;12.98;6.15;;;23.60;99.90;;;23.21;66.58;100669.50;5057642;28;20227;-76
2021/07/28 08:40:59;;;;;;;9.52;4.40;;;23.50;99.90;;;23.26;66.91;100679.78;5057627;28;20187;-77
2021/07/28 08:43:29;;;;;;;60.70;10.45;;;23.50;99.90;;;23.17;67.03;100681.44;5075936;28;20663;-76
2021/07/28 08:46:00;;;;;;;16.20;4.22;;;23.50;99.90;;;23.08;66.91;100674.25;5056862;28;20192;-79
2021/07/28 08:48:29;;;;;;;8.82;3.83;;;23.40;99.90;;;23.06;67.16;100670.03;5074262;28;20645;-78
2021/07/28 08:50:59;;;;;;;11.10;4.22;;;23.30;99.90;;;23.07;67.66;100671.72;5074389;28;20597;-78
2021/07/28 08:53:28;;;;;;;10.43;3.75;;;23.30;99.90;;;23.12;67.34;100677.50;5056634;28;20195;-78
2021/07/28 08:55:56;;;;;;;10.95;4.15;;;23.30;99.90;;;23.13;67.63;100673.84;5056326;28;20192;-77
2021/07/28 08:58:27;;;;;;;13.52;4.63;;;23.30;99.90;;;23.05;67.87;100671.88;5056475;28;20212;-77
2021/07/28 09:00:55;;;;;;;9.95;3.92;;;23.20;99.90;;;22.92;67.81;100675.78;5056197;28;20200;-77
2021/07/28 09:03:22;;;;;;;9.88;3.83;;;23.10;99.90;;;22.80;68.40;100669.72;5074464;28;20477;-77
2021/07/28 09:05:52;;;;;;;9.70;3.47;;;22.90;99.90;;;22.76;68.52;100675.44;5074900;28;20191;-77
2021/07/28 09:08:26;;;;;;;9.88;3.85;;;22.90;99.90;;;22.75;68.42;100674.59;5074055;28;20711;-77
2021/07/28 09:10:55;;;;;;;28.58;6.57;;;22.80;99.90;;;22.77;67.78;100669.13;5055719;28;20196;-77
2021/07/28 09:13:34;;;;;;;1224.78;216.40;;;22.80;99.90;;;22.83;67.26;100663.22;5073506;28;20184;-77
2021/07/28 09:16:05;;;;;;;243.35;35.10;;;22.90;99.90;;;22.89;67.47;100663.53;5055833;28;20196;-77
2021/07/28 09:18:38;;;;;;;40.38;7.95;;;22.90;99.90;;;22.97;67.33;100671.72;5055134;28;20212;-77
2021/07/28 09:21:28;;;;;;;24.35;5.65;;;23.00;99.90;;;23.09;66.64;100659.91;5073406;28;20195;-76
2021/07/28 09:24:09;;;;;;;125.57;16.95;;;23.10;99.90;;;23.21;66.51;100663.31;5054988;28;20202;-78
2021/07/28 09:26:42;;;;;;;44.22;8.65;;;23.30;99.90;;;23.34;66.19;100664.75;5055237;28;20216;-78
2021/07/28 09:29:11;;;;;;;26.80;5.05;;;23.40;99.90;;;23.43;65.31;100655.91;5072870;28;20263;-78
2021/07/28 09:31:42;;;;;;;13.93;4.00;;;23.50;99.90;;;23.43;64.49;100655.03;5054707;28;20192;-77
2021/07/28 09:34:35;;;;;;;9.57;3.28;;;23.50;99.90;;;23.43;64.07;100660.38;5054765;28;20645;-77
2021/07/28 09:37:07;;;;;;;8.93;3.55;;;23.40;99.90;;;23.41;63.79;100667.72;5055562;28;20200;-79
2021/07/28 09:39:37;;;;;;;8.07;3.30;;;23.40;99.90;;;23.48;63.85;100656.31;5054670;28;20230;-78
2021/07/28 09:42:11;;;;;;;21.38;5.22;;;23.50;99.90;;;23.59;63.19;100653.47;5072626;28;20180;-77
2021/07/28 09:44:41;;;;;;;13.68;3.67;;;23.60;99.90;;;23.69;63.43;100666.00;5072864;28;20187;-77
2021/07/28 09:47:13;;;;;;;10.02;3.25;;;23.80;99.90;;;23.76;62.84;100662.63;5054457;28;20230;-77
2021/07/28 09:49:43;;;;;;;8.48;3.45;;;23.90;99.90;;;23.82;63.01;100662.06;5054570;28;20212;-77
2021/07/28 09:52:19;;;;;;;203.35;23.55;;;23.90;99.90;;;23.95;62.95;100667.94;5072742;28;20192;-78
2021/07/28 09:54:49;;;;;;;72.03;10.68;;;24.00;99.90;;;24.03;62.11;100665.41;5054648;28;20223;-78
2021/07/28 09:57:22;;;;;;;16.10;4.68;;;24.10;99.90;;;24.09;61.39;100664.84;5072480;28;20212;-77
2021/07/28 09:59:53;;;;;;;9.35;3.75;;;24.20;99.90;;;24.09;61.20;100655.97;5055110;28;20207;-77
2021/07/28 10:02:23;;;;;;;9.98;3.55;;;24.20;99.90;;;24.10;60.78;100663.84;5054785;28;20203;-78
2021/07/28 10:04:52;;;;;;;8.98;3.58;;;24.20;99.90;;;24.13;60.54;100668.91;5054647;28;20203;-78
2021/07/28 10:07:22;;;;;;;29.63;6.03;;;24.20;99.90;;;24.15;60.17;100658.91;5072504;28;20218;-78
2021/07/28 10:10:02;;;;;;;15.45;4.57;;;24.30;99.90;;;24.20;59.98;100653.97;5072639;28;20215;-77
2021/07/28 10:12:30;;;;;;;27.40;4.80;;;24.30;99.90;;;24.26;59.50;100658.75;5055216;28;20203;-79